MAPA DE AEROPUERTO

INFORMACIÓN METAR y TAF

METAR FOR LGSK
ADDS - METARS form results

(1231 UTC 01 December 2020)
Data provider http://aviationweather.gov/metar/data/
 
METAR text: LGSK 011150Z 32010KT 7000 -RA SCT010 BKN025 09/07 Q1019
Conditions at: LGSK (SKIATHOS ISLAND , GR) observed 1150 UTC 01 December 2020
Temperature: 9.0°C (48°F)
Dewpoint: 7.0°C (45°F) [RH = 87%]
Pressure (altimeter): 30.09 inches Hg (1019.0 mb)
Winds: from the NW (320 degrees) at 12 MPH (10 knots; 5.1 m/s)
Visibility: 4 miles ( 7 km)
Ceiling: 2500 feet AGL
Clouds: scattered clouds at 1000 feet AGL
broken clouds at 2500 feet AGL
Weather: -RA  (light rain)

Forecast for: LGSK (SKIATHOS ISLAND , GR)
Text: TAF LGSK 011100Z 0112/0121 05015KT 9999 FEW010 BKN020
Forecast period: 1200 to 2100 UTC 01 December 2020
Forecast type: FROM: standard forecast or significant change
Winds: from the NE (50 degrees) at 17 MPH (15 knots; 7.7 m/s)
Visibility: 6 or more miles (10+ km)
Ceiling: 2000 feet AGL
Clouds: few clouds at 1000 feet AGL
broken clouds at 2000 feet AGL
Weather: no significant weather forecast for this period
Text: TEMPO 0112/0121 05015G25KT 5000 RA
Forecast period: 1200 to 2100 UTC 01 December 2020
Forecast type: TEMPORARY: The following changes expected for less than half the time period
Winds: from the NE (50 degrees) at 17 MPH (15 knots; 7.7 m/s)
gusting to 29 MPH (25 knots; 12.9 m/s)
Visibility: 3 miles (5 km)
Ceiling: unknown
Clouds: missing
Weather: RA  (moderate rain)